Time;durP1;ratioP1;P1;durP2;ratioP2;P2;SDS_P1;SDS_P2;PMS_P1;PMS_P2;Temp;Humidity;BMP_temperature;BMP_pressure;BME280_temperature;BME280_humidity;BME280_pressure;Samples;Min_cycle;Max_cycle;Signal;HPM_P1;HPM_P2
2021/04/02 00:00:39;;;;;;;53.80;48.40;;;15.60;62.40;;;;;;5116567;28;20562;-79
2021/04/02 00:03:11;;;;;;;52.50;47.10;;;15.50;62.70;;;;;;5116402;28;20786;-79
2021/04/02 00:05:38;;;;;;;52.43;47.10;;;15.40;62.90;;;;;;5119968;28;20451;-79
2021/04/02 00:08:05;;;;;;;53.80;47.33;;;15.40;63.10;;;;;;5134883;28;20531;-79
2021/04/02 00:10:36;;;;;;;56.57;49.20;;;15.40;63.10;;;;;;5133561;28;20472;-79
2021/04/02 00:13:03;;;;;;;53.63;48.07;;;15.30;63.10;;;;;;5133674;28;20460;-79
2021/04/02 00:15:29;;;;;;;55.20;49.50;;;15.30;63.40;;;;;;5133447;28;20472;-79
2021/04/02 00:17:56;;;;;;;57.27;51.20;;;15.30;63.50;;;;;;5134024;28;20500;-79
2021/04/02 00:20:23;;;;;;;57.90;50.40;;;15.10;63.90;;;;;;5131918;28;20558;-79
2021/04/02 00:22:50;;;;;;;55.20;49.60;;;15.00;64.20;;;;;;5133911;28;20459;-79
2021/04/02 00:25:16;;;;;;;55.87;50.37;;;14.90;64.80;;;;;;5116359;28;20462;-79
2021/04/02 00:27:43;;;;;;;55.07;49.40;;;14.80;65.00;;;;;;5115664;28;20955;-79
2021/04/02 00:30:13;;;;;;;55.97;49.80;;;14.80;64.90;;;;;;5116076;28;20464;-79
2021/04/02 00:32:40;;;;;;;53.90;48.50;;;14.70;65.10;;;;;;5116418;28;20581;-79
2021/04/02 00:35:07;;;;;;;56.70;50.37;;;14.70;65.10;;;;;;5116160;28;20440;-79
2021/04/02 00:37:34;;;;;;;54.10;47.97;;;14.60;65.50;;;;;;5115373;28;21009;-79
2021/04/02 00:40:01;;;;;;;53.47;47.97;;;14.60;65.80;;;;;;5115282;28;20485;-79
2021/04/02 00:42:28;;;;;;;55.93;50.07;;;14.50;65.90;;;;;;5115851;28;20437;-79
2021/04/02 00:44:55;;;;;;;56.87;50.87;;;14.40;66.40;;;;;;5116425;28;20524;-79
2021/04/02 00:47:21;;;;;;;55.97;50.43;;;14.40;66.50;;;;;;5115518;28;20460;-79
2021/04/02 00:49:48;;;;;;;58.70;52.50;;;14.40;66.60;;;;;;5115839;28;20478;-79
2021/04/02 00:52:14;;;;;;;59.33;53.43;;;14.40;66.70;;;;;;5116230;28;20456;-79
2021/04/02 00:54:41;;;;;;;57.60;51.83;;;14.30;66.80;;;;;;5115378;28;21021;-80
2021/04/02 00:57:07;;;;;;;57.90;51.93;;;14.30;67.10;;;;;;5114788;28;20972;-79
2021/04/02 00:59:34;;;;;;;59.60;52.67;;;14.30;67.00;;;;;;5115714;28;20496;-79
2021/04/02 01:02:00;;;;;;;59.10;52.70;;;14.30;67.00;;;;;;5116583;28;20452;-79
2021/04/02 01:04:27;;;;;;;57.37;51.27;;;14.30;67.10;;;;;;5115921;27;20796;-79
2021/04/02 01:06:54;;;;;;;61.83;55.53;;;14.30;67.10;;;;;;5115440;28;20448;-79
2021/04/02 01:09:20;;;;;;;58.50;52.20;;;14.20;67.30;;;;;;5115335;28;20567;-79
2021/04/02 01:11:47;;;;;;;56.67;51.10;;;14.20;67.30;;;;;;5123591;28;20453;-80
2021/04/02 01:14:14;;;;;;;57.70;51.70;;;14.20;67.30;;;;;;5122249;28;20821;-79
2021/04/02 01:16:43;;;;;;;57.87;52.17;;;14.20;67.30;;;;;;5114618;28;20452;-79
2021/04/02 01:19:15;;;;;;;55.80;50.30;;;14.10;67.40;;;;;;5115090;28;20476;-79
2021/04/02 01:21:46;;;;;;;52.90;47.20;;;14.00;67.30;;;;;;5115253;28;20449;-81
2021/04/02 01:24:18;;;;;;;53.10;47.90;;;13.90;67.10;;;;;;5114923;28;20817;-79
2021/04/02 01:27:14;;;;;;;50.90;46.10;;;13.80;67.70;;;;;;5114334;28;20448;-79
2021/04/02 01:29:47;;;;;;;51.27;46.43;;;13.80;67.60;;;;;;5114693;28;20841;-79
2021/04/02 01:35:38;;;;;;;49.20;44.47;;;13.80;67.50;;;;;;5114095;28;20808;-79
2021/04/02 01:38:08;;;;;;;47.60;42.97;;;13.60;67.90;;;;;;5114008;28;20468;-79
2021/04/02 01:40:37;;;;;;;49.17;44.63;;;13.50;68.00;;;;;;5114356;28;20476;-79
2021/04/02 01:43:09;;;;;;;47.53;43.47;;;13.50;68.10;;;;;;5114431;28;20790;-79
2021/04/02 01:45:37;;;;;;;51.37;45.77;;;13.50;68.20;;;;;;5114022;28;20448;-79
2021/04/02 01:48:05;;;;;;;46.80;42.77;;;13.50;68.30;;;;;;5114304;28;20976;-79
2021/04/02 01:50:36;;;;;;;49.77;45.13;;;13.50;68.20;;;;;;5114173;28;20825;-79
2021/04/02 01:53:04;;;;;;;49.63;44.93;;;13.40;68.60;;;;;;5113651;28;20949;-80
2021/04/02 01:55:30;;;;;;;47.57;43.27;;;13.50;68.30;;;;;;5113793;28;20456;-79
2021/04/02 01:57:58;;;;;;;48.47;43.70;;;13.30;68.60;;;;;;5114212;28;20456;-80
2021/04/02 02:00:30;;;;;;;48.10;43.40;;;13.30;68.90;;;;;;5113879;28;20628;-79
2021/04/02 02:03:00;;;;;;;49.03;44.30;;;13.10;69.40;;;;;;5114124;28;20886;-79
2021/04/02 02:05:27;;;;;;;47.10;42.77;;;13.20;69.10;;;;;;5114131;28;20474;-81
2021/04/02 02:07:58;;;;;;;47.67;42.93;;;13.20;69.00;;;;;;5126569;28;20434;-79
2021/04/02 02:10:26;;;;;;;46.53;42.23;;;13.10;69.20;;;;;;5134765;28;20533;-79
2021/04/02 02:12:54;;;;;;;43.37;39.50;;;13.00;69.60;;;;;;5131180;28;20449;-79
2021/04/02 02:15:21;;;;;;;43.47;39.33;;;12.90;69.10;;;;;;5130374;28;20452;-79
2021/04/02 02:17:54;;;;;;;42.60;38.93;;;12.90;69.40;;;;;;5129457;28;20484;-79
2021/04/02 02:20:22;;;;;;;42.20;38.77;;;12.90;69.20;;;;;;5129627;28;20491;-79
2021/04/02 02:22:48;;;;;;;41.07;37.60;;;12.90;69.00;;;;;;5130754;28;20511;-79
2021/04/02 02:25:15;;;;;;;39.83;36.27;;;13.00;68.90;;;;;;5130213;28;20524;-79
2021/04/02 02:27:42;;;;;;;39.70;36.40;;;12.90;68.70;;;;;;5129252;28;20525;-79
2021/04/02 02:30:11;;;;;;;39.07;35.77;;;12.90;68.70;;;;;;5129595;28;20914;-79
2021/04/02 02:32:38;;;;;;;40.23;36.80;;;12.60;69.40;;;;;;5130186;28;20517;-79
2021/04/02 02:35:07;;;;;;;41.17;37.50;;;12.50;69.90;;;;;;5129410;28;20459;-79
2021/04/02 02:37:36;;;;;;;44.17;40.17;;;12.60;69.90;;;;;;5128187;28;20479;-79
2021/04/02 02:40:03;;;;;;;42.90;38.87;;;12.50;70.30;;;;;;5129233;28;20483;-79
2021/04/02 02:42:29;;;;;;;41.77;38.07;;;12.50;70.40;;;;;;5129059;28;20483;-79
2021/04/02 02:44:56;;;;;;;45.33;41.17;;;12.50;70.30;;;;;;5129357;28;20508;-79
2021/04/02 02:47:22;;;;;;;42.07;38.43;;;12.50;70.60;;;;;;5118061;28;20445;-79
2021/04/02 02:49:51;;;;;;;43.73;39.73;;;12.40;70.80;;;;;;5113045;28;20503;-79
2021/04/02 02:52:18;;;;;;;42.43;38.33;;;12.40;70.80;;;;;;5113017;28;20460;-79
2021/04/02 02:54:46;;;;;;;39.90;36.50;;;12.30;70.90;;;;;;5113275;28;20532;-79
2021/04/02 02:57:15;;;;;;;41.53;37.70;;;12.20;70.90;;;;;;5112632;28;20452;-79
2021/04/02 02:59:42;;;;;;;38.87;35.47;;;12.20;71.10;;;;;;5112833;28;20480;-79
2021/04/02 03:02:09;;;;;;;38.60;35.60;;;12.10;70.90;;;;;;5113071;28;20539;-79
2021/04/02 03:04:37;;;;;;;37.47;34.33;;;12.00;71.10;;;;;;5112053;28;20579;-79
2021/04/02 03:07:06;;;;;;;39.30;35.83;;;12.00;71.40;;;;;;5122291;28;20454;-79
2021/04/02 03:09:34;;;;;;;38.10;35.00;;;12.00;71.50;;;;;;5119867;28;20830;-79
2021/04/02 03:12:04;;;;;;;36.83;33.90;;;11.90;71.70;;;;;;5113953;28;20448;-79
2021/04/02 03:14:31;;;;;;;38.90;35.80;;;11.90;71.90;;;;;;5112668;28;20825;-79
2021/04/02 03:16:59;;;;;;;37.87;34.70;;;11.80;72.10;;;;;;5112462;28;20513;-79
2021/04/02 03:19:27;;;;;;;40.20;36.70;;;11.90;71.80;;;;;;5112614;28;20486;-79
2021/04/02 03:21:56;;;;;;;43.20;39.30;;;11.90;72.20;;;;;;5112923;28;20536;-79
2021/04/02 03:24:23;;;;;;;42.53;38.60;;;11.90;72.40;;;;;;5112662;28;20505;-79
2021/04/02 03:26:53;;;;;;;39.60;36.30;;;11.70;72.60;;;;;;5112197;28;20526;-79
2021/04/02 03:29:22;;;;;;;38.60;35.60;;;11.60;72.70;;;;;;5112933;28;20492;-79
2021/04/02 03:31:49;;;;;;;38.07;34.97;;;11.50;72.40;;;;;;5113022;28;20455;-79
2021/04/02 03:34:18;;;;;;;39.20;36.00;;;11.40;72.50;;;;;;5112640;28;20568;-79
2021/04/02 03:36:48;;;;;;;37.10;34.30;;;11.40;72.10;;;;;;5111742;28;20452;-79
2021/04/02 03:39:21;;;;;;;34.17;31.37;;;11.40;71.80;;;;;;5112621;28;20555;-79
2021/04/02 03:41:51;;;;;;;34.22;31.65;;;11.30;71.00;;;;;;5112309;28;20460;-79
2021/04/02 03:44:21;;;;;;;34.57;32.03;;;11.20;71.00;;;;;;5112831;28;20199;-80
2021/04/02 03:46:49;;;;;;;37.30;34.15;;;11.40;70.20;;;;;;5111880;28;20456;-79
2021/04/02 03:49:21;;;;;;;36.05;33.20;;;11.40;70.20;;;;;;5112399;28;20217;-79
2021/04/02 03:51:50;;;;;;;35.53;32.58;;;11.30;70.60;;;;;;5112734;28;20718;-81
2021/04/02 03:54:17;;;;;;;35.80;32.95;;;11.20;71.30;;;;;;5113047;28;20194;-79
2021/04/02 03:56:48;;;;;;;36.60;33.70;;;11.00;71.60;;;;;;5120780;28;20198;-80
2021/04/02 03:59:15;;;;;;;34.60;31.75;;;10.90;71.40;;;;;;5121350;28;20348;-79
2021/04/02 04:01:47;;;;;;;34.83;32.10;;;10.90;71.00;;;;;;5125869;28;20237;-79
2021/04/02 04:04:14;;;;;;;33.90;31.42;;;10.80;70.20;;;;;;5122879;28;20222;-80
2021/04/02 04:06:43;;;;;;;32.92;30.58;;;10.60;69.90;;;;;;5120057;28;20247;-79
2021/04/02 04:09:12;;;;;;;31.90;29.38;;;10.50;69.60;;;;;;5119388;28;20577;-79
2021/04/02 04:11:40;;;;;;;32.15;29.65;;;10.50;69.70;;;;;;5120798;28;20247;-79
2021/04/02 04:14:08;;;;;;;32.08;29.50;;;10.40;68.90;;;;;;5121863;28;20296;-80
2021/04/02 04:16:37;;;;;;;31.30;29.08;;;10.40;68.70;;;;;;5125020;27;20254;-79
2021/04/02 04:19:05;;;;;;;31.40;29.20;;;10.40;69.00;;;;;;5126059;28;20198;-79
2021/04/02 04:21:36;;;;;;;32.00;29.67;;;10.30;67.80;;;;;;5117676;28;20266;-79
2021/04/02 04:24:04;;;;;;;29.73;27.65;;;10.20;67.40;;;;;;5116002;28;20195;-79
2021/04/02 04:26:31;;;;;;;31.27;28.98;;;10.00;67.00;;;;;;5115417;28;20241;-79
2021/04/02 04:28:59;;;;;;;29.65;27.73;;;9.80;68.10;;;;;;5115642;27;20206;-79
2021/04/02 04:31:26;;;;;;;28.80;27.00;;;9.90;67.60;;;;;;5115678;28;20202;-78
2021/04/02 04:33:56;;;;;;;30.77;28.67;;;10.00;66.50;;;;;;5115717;28;20291;-78
2021/04/02 04:36:24;;;;;;;28.73;26.77;;;9.80;66.80;;;;;;5115223;28;20266;-79
2021/04/02 04:38:54;;;;;;;27.80;26.00;;;9.70;66.60;;;;;;5115583;28;20197;-78
2021/04/02 04:41:24;;;;;;;28.70;26.75;;;9.50;66.70;;;;;;5115852;28;20205;-78
2021/04/02 04:43:52;;;;;;;27.75;26.05;;;9.40;66.30;;;;;;5115790;28;20339;-78
2021/04/02 04:46:19;;;;;;;27.95;26.15;;;9.50;66.00;;;;;;5115248;28;20210;-78
2021/04/02 04:48:47;;;;;;;26.83;25.13;;;9.40;66.10;;;;;;5115560;28;20199;-78
2021/04/02 04:51:16;;;;;;;26.90;25.30;;;9.50;65.40;;;;;;5115609;28;20194;-78
2021/04/02 04:53:44;;;;;;;26.95;25.02;;;9.30;65.20;;;;;;5115770;28;20227;-78
2021/04/02 04:56:14;;;;;;;27.00;25.23;;;9.30;64.90;;;;;;5115101;28;20278;-81
2021/04/02 04:58:42;;;;;;;26.70;25.15;;;9.30;64.60;;;;;;5115898;28;20198;-79
2021/04/02 05:01:12;;;;;;;26.73;25.02;;;9.20;64.50;;;;;;5122546;28;20305;-78
2021/04/02 05:03:39;;;;;;;27.30;25.42;;;9.00;65.00;;;;;;5119744;28;20234;-78
2021/04/02 05:06:07;;;;;;;26.67;25.02;;;9.00;65.10;;;;;;5116067;28;20234;-78
2021/04/02 05:08:39;;;;;;;25.45;24.05;;;9.00;64.90;;;;;;5116687;28;20199;-78
2021/04/02 05:11:08;;;;;;;26.15;24.60;;;9.00;64.70;;;;;;5117035;28;20638;-78
2021/04/02 05:13:36;;;;;;;26.20;24.50;;;9.00;64.50;;;;;;5117134;28;20213;-78
2021/04/02 05:16:04;;;;;;;26.67;24.77;;;9.00;64.70;;;;;;5117945;28;20245;-79
2021/04/02 05:18:32;;;;;;;25.42;23.90;;;9.00;64.90;;;;;;5117067;28;20198;-78
2021/04/02 05:20:59;;;;;;;25.55;23.88;;;9.00;64.70;;;;;;5114949;28;20229;-79
2021/04/02 05:23:26;;;;;;;25.48;23.73;;;8.90;64.70;;;;;;5114961;28;20194;-79
2021/04/02 05:25:52;;;;;;;26.67;24.85;;;8.90;64.60;;;;;;5114507;28;20217;-78
2021/04/02 05:28:20;;;;;;;26.45;24.85;;;8.80;64.70;;;;;;5114137;28;20285;-79
2021/04/02 05:30:46;;;;;;;27.00;25.08;;;8.90;64.60;;;;;;5125133;28;20243;-79
2021/04/02 05:33:13;;;;;;;29.58;26.95;;;9.00;64.10;;;;;;5126255;28;20277;-78
2021/04/02 05:35:41;;;;;;;28.88;26.92;;;9.00;64.10;;;;;;5114211;28;20289;-78
2021/04/02 05:38:08;;;;;;;26.13;24.63;;;9.00;64.10;;;;;;5114585;28;20190;-78
2021/04/02 05:40:34;;;;;;;26.30;24.70;;;9.00;64.10;;;;;;5114590;28;20309;-78
2021/04/02 05:43:09;;;;;;;27.75;25.85;;;9.00;64.20;;;;;;5114493;28;20202;-79
2021/04/02 05:45:38;;;;;;;26.85;25.08;;;9.20;64.10;;;;;;5114047;28;20194;-78
2021/04/02 05:48:06;;;;;;;26.48;24.88;;;9.10;64.30;;;;;;5114848;28;20194;-78
2021/04/02 05:50:34;;;;;;;26.80;25.10;;;9.10;64.50;;;;;;5114235;28;20217;-79
2021/04/02 05:53:04;;;;;;;26.27;24.67;;;9.00;65.00;;;;;;5114188;28;20195;-78
2021/04/02 05:55:33;;;;;;;27.02;25.42;;;9.00;65.10;;;;;;5113683;28;20935;-78
2021/04/02 05:58:01;;;;;;;26.60;25.00;;;9.00;65.30;;;;;;5114086;28;20272;-78
2021/04/02 06:00:28;;;;;;;27.23;25.42;;;8.80;66.00;;;;;;5113949;28;20219;-78
2021/04/02 06:02:57;;;;;;;26.80;25.20;;;8.80;66.20;;;;;;5113677;28;20282;-79
2021/04/02 06:05:23;;;;;;;27.10;25.27;;;8.90;66.00;;;;;;5113622;28;20202;-79
2021/04/02 06:07:51;;;;;;;28.08;26.10;;;8.90;66.20;;;;;;5113754;28;20579;-78
2021/04/02 06:10:17;;;;;;;27.90;25.80;;;9.00;66.00;;;;;;5113707;28;20743;-79
2021/04/02 06:12:44;;;;;;;26.30;24.38;;;9.00;66.50;;;;;;5113568;28;20190;-79
2021/04/02 06:15:11;;;;;;;27.35;25.65;;;8.90;66.60;;;;;;5113797;28;20191;-78
2021/04/02 06:18:02;;;;;;;27.80;25.90;;;9.00;66.70;;;;;;5113105;28;20210;-79
2021/04/02 06:20:30;;;;;;;27.10;25.50;;;9.10;66.40;;;;;;5113800;28;20222;-78
2021/04/02 06:23:09;;;;;;;28.10;26.10;;;9.10;66.60;;;;;;5113666;28;20230;-79
2021/04/02 06:25:37;;;;;;;27.45;25.65;;;9.30;66.30;;;;;;5113068;28;20575;-78
2021/04/02 06:28:10;;;;;;;26.20;24.70;;;9.30;66.10;;;;;;5113547;28;20198;-79
2021/04/02 06:30:39;;;;;;;26.90;25.30;;;9.30;66.30;;;;;;5113601;28;20742;-78
2021/04/02 06:33:08;;;;;;;26.95;25.25;;;9.40;66.50;;;;;;5113591;28;20205;-78
2021/04/02 06:35:37;;;;;;;27.40;25.70;;;9.40;66.30;;;;;;5112923;28;20199;-78
2021/04/02 06:38:04;;;;;;;27.50;25.80;;;9.50;65.90;;;;;;5113110;28;20620;-78
2021/04/02 06:40:31;;;;;;;27.85;25.85;;;9.60;65.80;;;;;;5113273;28;20214;-79
2021/04/02 06:42:59;;;;;;;29.33;26.92;;;9.60;65.90;;;;;;5115000;28;20543;-79
2021/04/02 06:45:25;;;;;;;34.63;32.67;;;9.60;65.90;;;;;;5114585;28;20199;-79
2021/04/02 06:47:51;;;;;;;27.83;26.00;;;9.70;65.60;;;;;;5114237;28;20563;-78
2021/04/02 06:50:22;;;;;;;35.90;32.03;;;9.90;65.20;;;;;;5114404;28;20743;-78
2021/04/02 06:52:51;;;;;;;27.85;25.88;;;10.00;64.80;;;;;;5114277;28;20198;-79
2021/04/02 06:55:18;;;;;;;27.65;25.85;;;10.00;64.80;;;;;;5120224;28;20205;-79
2021/04/02 06:57:48;;;;;;;27.80;25.90;;;10.00;64.70;;;;;;5118790;28;20198;-79
2021/04/02 07:00:19;;;;;;;26.95;25.30;;;9.70;65.60;;;;;;5115283;28;20309;-79
2021/04/02 07:02:50;;;;;;;27.15;25.42;;;9.70;65.60;;;;;;5114530;28;20205;-78
2021/04/02 07:05:21;;;;;;;28.35;26.73;;;9.70;66.30;;;;;;5115074;28;20322;-78
2021/04/02 07:07:52;;;;;;;29.63;27.45;;;9.60;66.10;;;;;;5114250;28;20208;-79
2021/04/02 07:10:20;;;;;;;28.00;26.20;;;9.50;66.40;;;;;;5114085;28;20234;-79
2021/04/02 07:12:51;;;;;;;29.35;27.45;;;9.40;66.70;;;;;;5114041;28;20195;-79
2021/04/02 07:15:18;;;;;;;29.35;27.13;;;9.50;66.60;;;;;;5114256;28;20624;-79
2021/04/02 07:17:45;;;;;;;29.05;26.88;;;9.50;66.70;;;;;;5113865;28;20286;-79
2021/04/02 07:20:13;;;;;;;27.38;25.60;;;9.50;66.60;;;;;;5113979;28;20232;-78
2021/04/02 07:22:41;;;;;;;27.00;25.40;;;9.50;66.70;;;;;;5113559;28;20734;-79
2021/04/02 07:25:09;;;;;;;29.73;27.73;;;9.50;66.30;;;;;;5113765;28;20281;-78
2021/04/02 07:27:36;;;;;;;29.85;27.85;;;9.40;66.70;;;;;;5113080;28;20282;-79
2021/04/02 07:30:04;;;;;;;33.38;30.25;;;9.60;66.60;;;;;;5113362;28;20682;-78
2021/04/02 07:32:31;;;;;;;30.70;28.50;;;9.50;66.70;;;;;;5112485;28;20197;-78
2021/04/02 07:34:59;;;;;;;29.30;27.40;;;9.80;66.10;;;;;;5112591;28;20297;-79
2021/04/02 07:37:26;;;;;;;30.85;28.45;;;9.70;66.20;;;;;;5112134;28;20618;-78
2021/04/02 07:39:55;;;;;;;30.80;28.90;;;9.70;66.30;;;;;;5112430;28;20222;-78
2021/04/02 07:42:22;;;;;;;31.30;28.90;;;9.70;66.40;;;;;;5112463;28;20772;-78
2021/04/02 07:44:54;;;;;;;30.48;28.35;;;9.80;66.30;;;;;;5112510;28;20202;-78
2021/04/02 07:47:23;;;;;;;29.52;27.65;;;9.80;66.40;;;;;;5111933;28;20334;-78
2021/04/02 07:49:58;;;;;;;30.63;28.52;;;9.90;66.20;;;;;;5112217;28;20246;-79
2021/04/02 07:52:31;;;;;;;32.22;29.80;;;10.10;65.70;;;;;;5116702;28;20213;-79
2021/04/02 07:55:08;;;;;;;29.63;27.83;;;10.00;66.20;;;;;;5116528;28;20629;-80
2021/04/02 07:58:00;;;;;;;30.30;27.80;;;10.10;65.90;;;;;;5115937;28;20201;-79
2021/04/02 08:00:28;;;;;;;31.13;28.92;;;10.20;65.60;;;;;;5116342;28;20222;-79
2021/04/02 08:03:09;;;;;;;30.08;28.08;;;10.30;65.30;;;;;;5116655;28;20285;-78
2021/04/02 08:05:36;;;;;;;29.65;27.75;;;10.30;65.30;;;;;;5119503;28;20198;-78
2021/04/02 08:08:03;;;;;;;30.95;28.38;;;10.30;65.20;;;;;;5120120;28;20194;-79
2021/04/02 08:10:30;;;;;;;30.67;28.65;;;10.20;65.50;;;;;;5119716;28;20303;-79
2021/04/02 08:12:56;;;;;;;30.38;28.45;;;10.10;65.80;;;;;;5120400;28;20236;-79
2021/04/02 08:15:23;;;;;;;32.58;30.40;;;10.30;65.70;;;;;;5119674;28;20274;-78
2021/04/02 08:17:50;;;;;;;30.23;28.33;;;10.20;65.70;;;;;;5118162;28;20290;-79
2021/04/02 08:20:19;;;;;;;31.80;29.70;;;10.20;65.80;;;;;;5118897;28;20226;-79
2021/04/02 08:22:48;;;;;;;30.83;28.58;;;10.20;66.10;;;;;;5118325;28;20218;-79
2021/04/02 08:25:16;;;;;;;31.33;28.92;;;10.40;65.40;;;;;;5119111;28;20312;-78
2021/04/02 08:27:44;;;;;;;32.97;30.48;;;10.40;65.60;;;;;;5118980;28;20230;-79
2021/04/02 08:30:13;;;;;;;32.67;30.00;;;10.50;65.40;;;;;;5123229;28;20265;-78
2021/04/02 08:32:42;;;;;;;32.88;29.88;;;10.60;65.10;;;;;;5117643;27;20191;-79
2021/04/02 08:35:10;;;;;;;33.67;31.52;;;10.80;64.70;;;;;;5117470;27;20339;-79
2021/04/02 08:37:37;;;;;;;32.03;29.85;;;10.60;64.90;;;;;;5118254;28;20237;-79
2021/04/02 08:40:09;;;;;;;32.90;30.45;;;10.40;65.80;;;;;;5116710;28;20261;-78
2021/04/02 08:42:36;;;;;;;31.65;29.55;;;10.50;65.50;;;;;;5116787;28;20198;-79
2021/04/02 08:45:07;;;;;;;32.45;29.20;;;10.70;64.90;;;;;;5117563;28;20672;-79
2021/04/02 08:47:37;;;;;;;32.30;30.00;;;10.70;65.20;;;;;;5119711;28;20608;-79
2021/04/02 08:50:05;;;;;;;33.65;30.95;;;10.80;65.10;;;;;;5125545;28;20283;-79
2021/04/02 08:52:32;;;;;;;32.53;30.23;;;10.80;65.20;;;;;;5133114;28;20222;-79
2021/04/02 08:55:00;;;;;;;32.67;30.35;;;10.90;64.90;;;;;;5135788;28;20183;-78
2021/04/02 08:57:29;;;;;;;32.70;30.50;;;11.00;64.90;;;;;;5123565;28;20198;-78
2021/04/02 08:59:57;;;;;;;33.72;31.52;;;11.10;64.20;;;;;;5117825;28;20226;-78
2021/04/02 09:02:28;;;;;;;33.53;31.20;;;11.10;64.30;;;;;;5116712;28;20201;-79
2021/04/02 09:04:55;;;;;;;32.47;29.98;;;11.10;64.40;;;;;;5123057;27;20195;-79
2021/04/02 09:07:21;;;;;;;33.90;31.60;;;11.40;63.50;;;;;;5125847;28;20631;-79
2021/04/02 09:09:48;;;;;;;32.63;30.42;;;11.50;63.30;;;;;;5126453;28;20282;-79
2021/04/02 09:12:16;;;;;;;33.03;30.77;;;11.50;63.30;;;;;;5127171;28;20276;-79
2021/04/02 09:14:44;;;;;;;32.60;30.30;;;11.60;62.90;;;;;;5125688;28;20491;-79
2021/04/02 09:17:13;;;;;;;32.93;30.53;;;11.50;63.20;;;;;;5126758;28;20194;-79
2021/04/02 09:19:41;;;;;;;33.03;30.70;;;11.70;63.10;;;;;;5127664;28;20476;-79
2021/04/02 09:22:08;;;;;;;33.60;31.30;;;11.70;62.90;;;;;;5118575;28;20203;-78
2021/04/02 09:24:35;;;;;;;33.30;31.10;;;11.80;62.80;;;;;;5115275;28;20480;-78
2021/04/02 09:27:08;;;;;;;33.77;31.37;;;11.90;62.40;;;;;;5114196;28;20578;-79
2021/04/02 09:29:34;;;;;;;34.40;31.90;;;12.00;62.20;;;;;;5114807;28;20476;-79
2021/04/02 09:32:03;;;;;;;35.57;32.97;;;12.20;61.10;;;;;;5114817;28;20549;-79
2021/04/02 09:34:30;;;;;;;33.83;31.53;;;12.30;61.10;;;;;;5117460;28;20448;-79
2021/04/02 09:36:58;;;;;;;35.10;32.57;;;12.40;60.80;;;;;;5124715;28;20491;-77
2021/04/02 09:39:26;;;;;;;35.03;32.23;;;12.40;61.30;;;;;;5114416;28;21025;-77
2021/04/02 09:41:54;;;;;;;33.93;31.53;;;12.70;60.70;;;;;;5114449;28;20458;-78
2021/04/02 09:44:23;;;;;;;33.13;30.60;;;13.10;59.40;;;;;;5114636;28;20794;-78
2021/04/02 09:46:50;;;;;;;33.90;31.37;;;13.30;58.50;;;;;;5113942;28;20945;-78
2021/04/02 09:49:18;;;;;;;33.10;31.00;;;13.20;58.70;;;;;;5114427;28;20988;-79
2021/04/02 09:51:46;;;;;;;33.60;31.40;;;13.10;58.70;;;;;;5114295;28;20464;-78
2021/04/02 09:54:15;;;;;;;35.10;32.50;;;13.30;58.70;;;;;;5114504;28;20540;-80
2021/04/02 09:56:42;;;;;;;34.47;32.00;;;13.20;58.80;;;;;;5113845;28;20488;-78
2021/04/02 09:59:09;;;;;;;32.20;30.10;;;13.40;57.50;;;;;;5114439;28;20468;-78
2021/04/02 10:01:37;;;;;;;35.33;32.50;;;13.50;57.30;;;;;;5114272;28;20476;-78
2021/04/02 10:04:05;;;;;;;31.97;29.77;;;13.50;57.30;;;;;;5113731;28;20461;-78
2021/04/02 10:06:32;;;;;;;32.40;30.20;;;13.30;57.20;;;;;;5113629;28;20862;-79
2021/04/02 10:08:59;;;;;;;32.33;29.83;;;13.20;56.20;;;;;;5113860;28;20444;-79
2021/04/02 10:11:27;;;;;;;33.53;31.23;;;12.80;58.40;;;;;;5113852;27;20449;-78
2021/04/02 10:13:54;;;;;;;32.87;30.67;;;12.80;59.40;;;;;;5113299;28;20459;-78
2021/04/02 10:16:21;;;;;;;32.63;30.43;;;13.20;58.70;;;;;;5113481;28;20512;-78
2021/04/02 10:18:49;;;;;;;31.83;29.63;;;13.30;56.60;;;;;;5114091;28;20501;-78
2021/04/02 10:21:16;;;;;;;31.57;29.57;;;13.00;56.20;;;;;;5113701;28;20483;-79
2021/04/02 10:23:43;;;;;;;33.17;30.60;;;12.70;57.00;;;;;;5113776;28;20495;-78
2021/04/02 10:26:10;;;;;;;32.73;30.43;;;12.60;58.10;;;;;;5113253;28;20491;-78
2021/04/02 10:28:37;;;;;;;31.57;29.40;;;12.60;57.80;;;;;;5113883;28;20444;-78
2021/04/02 10:31:05;;;;;;;32.47;30.23;;;13.00;57.70;;;;;;5114383;28;20471;-79
2021/04/02 10:33:31;;;;;;;34.23;31.80;;;13.20;57.60;;;;;;5114105;28;20464;-79
2021/04/02 10:35:58;;;;;;;31.60;29.57;;;13.40;57.30;;;;;;5112867;28;21005;-78
2021/04/02 10:38:25;;;;;;;31.97;29.63;;;13.50;56.60;;;;;;5113516;28;20452;-78
2021/04/02 10:40:52;;;;;;;36.20;34.00;;;13.50;56.30;;;;;;5113097;28;20995;-78
2021/04/02 10:43:19;;;;;;;34.70;32.30;;;13.20;56.40;;;;;;5113503;27;20979;-78
2021/04/02 10:45:46;;;;;;;34.17;31.97;;;13.00;57.20;;;;;;5114132;28;20472;-78
2021/04/02 10:48:13;;;;;;;33.87;31.57;;;13.20;57.30;;;;;;5117935;28;20530;-79
2021/04/02 10:50:40;;;;;;;32.70;30.57;;;13.20;57.00;;;;;;5115048;28;20468;-78
2021/04/02 10:53:07;;;;;;;31.60;29.60;;;13.20;56.60;;;;;;5114518;28;20484;-78
2021/04/02 10:55:34;;;;;;;31.73;29.73;;;13.00;56.70;;;;;;5112420;28;20456;-78
2021/04/02 10:58:01;;;;;;;33.83;31.30;;;12.90;55.10;;;;;;5113518;28;20452;-78
2021/04/02 11:00:27;;;;;;;33.47;31.10;;;12.90;55.00;;;;;;5113040;28;20486;-78
2021/04/02 11:02:54;;;;;;;33.93;31.53;;;13.00;54.00;;;;;;5112851;28;20452;-78
2021/04/02 11:05:21;;;;;;;33.40;31.10;;;12.90;56.30;;;;;;5112755;28;20941;-78
2021/04/02 11:07:47;;;;;;;32.90;30.57;;;12.90;56.00;;;;;;5112582;28;20489;-78
2021/04/02 11:10:14;;;;;;;33.37;31.07;;;12.70;56.10;;;;;;5112462;28;20556;-78
2021/04/02 11:12:41;;;;;;;32.87;30.40;;;12.60;55.50;;;;;;5112606;28;20488;-78
2021/04/02 11:15:12;;;;;;;33.37;30.90;;;12.70;56.10;;;;;;5112719;28;20452;-78
2021/04/02 11:17:39;;;;;;;41.13;35.30;;;12.80;55.70;;;;;;5112022;28;20452;-79
2021/04/02 11:20:08;;;;;;;32.00;29.80;;;12.90;55.20;;;;;;5112553;28;20595;-78
2021/04/02 11:22:36;;;;;;;33.20;31.00;;;12.90;55.00;;;;;;5112500;28;20970;-78
2021/04/02 11:25:03;;;;;;;32.00;30.00;;;12.90;54.60;;;;;;5111601;28;20487;-78
2021/04/02 11:27:29;;;;;;;32.07;30.07;;;13.00;54.90;;;;;;5111966;28;20486;-78
2021/04/02 11:29:55;;;;;;;32.80;30.70;;;13.10;54.30;;;;;;5112561;28;20559;-78
2021/04/02 11:32:23;;;;;;;35.20;32.53;;;13.10;54.00;;;;;;5112451;28;20463;-78
2021/04/02 11:34:49;;;;;;;31.40;29.30;;;12.90;54.40;;;;;;5112690;28;20452;-78
2021/04/02 11:37:17;;;;;;;31.30;29.10;;;12.70;53.40;;;;;;5112539;28;20480;-78
2021/04/02 11:39:44;;;;;;;32.27;29.97;;;12.90;54.60;;;;;;5112385;28;20529;-78
2021/04/02 11:42:11;;;;;;;31.30;29.23;;;12.90;55.50;;;;;;5112789;28;20895;-78
2021/04/02 11:44:38;;;;;;;31.03;29.00;;;12.70;56.30;;;;;;5112539;28;20535;-78
2021/04/02 11:47:05;;;;;;;30.33;28.30;;;12.80;55.60;;;;;;5112408;28;20523;-78
2021/04/02 11:49:31;;;;;;;31.70;29.50;;;12.90;54.50;;;;;;5112968;28;20472;-78
2021/04/02 11:51:58;;;;;;;31.10;29.20;;;12.90;54.40;;;;;;5112511;28;20899;-78
2021/04/02 11:54:26;;;;;;;30.10;28.30;;;12.90;54.90;;;;;;5112430;28;20449;-78
2021/04/02 11:56:52;;;;;;;30.90;29.00;;;13.10;53.70;;;;;;5112036;28;20453;-78
2021/04/02 11:59:19;;;;;;;34.10;31.90;;;13.10;54.80;;;;;;5112098;28;20479;-78
2021/04/02 12:01:45;;;;;;;31.40;29.50;;;13.00;55.10;;;;;;5112391;28;20472;-79
2021/04/02 12:04:12;;;;;;;31.57;29.57;;;13.20;55.00;;;;;;5112418;28;20979;-79
2021/04/02 12:06:40;;;;;;;30.97;28.97;;;13.40;54.70;;;;;;5112012;28;20448;-79
2021/04/02 12:09:07;;;;;;;31.77;29.67;;;13.50;53.80;;;;;;5112090;28;20448;-79
2021/04/02 12:11:34;;;;;;;31.93;29.93;;;13.50;53.20;;;;;;5112352;28;20445;-79
2021/04/02 12:14:01;;;;;;;30.03;28.13;;;13.40;53.30;;;;;;5112427;28;20981;-80
2021/04/02 12:16:27;;;;;;;31.20;29.40;;;13.40;52.80;;;;;;5112033;28;20444;-79
2021/04/02 12:18:54;;;;;;;30.80;28.87;;;13.50;52.70;;;;;;5112231;28;20539;-79
2021/04/02 12:21:20;;;;;;;30.93;28.90;;;13.60;51.60;;;;;;5112057;28;20477;-79
2021/04/02 12:23:46;;;;;;;31.20;29.30;;;13.60;51.20;;;;;;5112368;28;20978;-78
2021/04/02 12:26:13;;;;;;;31.90;30.00;;;13.30;51.20;;;;;;5111575;28;20527;-79
2021/04/02 12:28:40;;;;;;;31.53;29.63;;;13.20;52.10;;;;;;5112124;28;20970;-79
2021/04/02 12:31:06;;;;;;;29.97;28.07;;;13.10;52.30;;;;;;5112024;28;20830;-78
2021/04/02 12:33:33;;;;;;;32.63;30.63;;;12.90;52.30;;;;;;5112274;28;20452;-79
2021/04/02 12:35:59;;;;;;;29.63;27.63;;;12.70;52.90;;;;;;5111867;28;20444;-79
2021/04/02 12:38:27;;;;;;;29.43;27.70;;;12.80;52.50;;;;;;5115925;28;20539;-79